Time;durP1;ratioP1;P1;durP2;ratioP2;P2;SDS_P1;SDS_P2;PMS_P1;PMS_P2;Temp;Humidity;BMP_temperature;BMP_pressure;BME280_temperature;BME280_humidity;BME280_pressure;Samples;Min_cycle;Max_cycle;Signal;HPM_P1;HPM_P2
2021/04/21 00:00:32;;;;;;;11.40;8.40;;;8.90;99.90;;;;;;5070620;28;20395;-82
2021/04/21 00:02:59;;;;;;;11.30;9.40;;;8.80;99.90;;;;;;5072700;28;20440;-83
2021/04/21 00:05:26;;;;;;;14.93;8.23;;;8.60;99.90;;;;;;5071184;28;20427;-83
2021/04/21 00:07:54;;;;;;;22.33;9.80;;;8.50;99.90;;;;;;5054140;28;20438;-82
2021/04/21 00:10:23;;;;;;;9.67;7.67;;;8.40;99.90;;;;;;5072946;28;20406;-82
2021/04/21 00:12:51;;;;;;;12.90;8.50;;;8.30;99.90;;;;;;5072995;28;20469;-83
2021/04/21 00:15:21;;;;;;;10.63;8.23;;;8.30;99.90;;;;;;5072600;28;20416;-83
2021/04/21 00:17:50;;;;;;;13.70;9.77;;;8.20;99.90;;;;;;5073171;28;20416;-81
2021/04/21 00:20:18;;;;;;;10.07;9.13;;;8.30;99.90;;;;;;5133172;28;20399;-80
2021/04/21 00:22:50;;;;;;;14.97;10.83;;;8.40;99.90;;;;;;5118610;28;20406;-82
2021/04/21 00:25:15;;;;;;;13.73;12.30;;;8.70;99.90;;;;;;5101297;28;20389;-82
2021/04/21 00:27:44;;;;;;;17.93;11.90;;;8.90;99.90;;;;;;5134944;28;20403;-81
2021/04/21 00:30:12;;;;;;;14.03;10.70;;;9.10;99.90;;;;;;5115525;28;20249;-81
2021/04/21 00:32:45;;;;;;;15.00;10.40;;;9.10;99.90;;;;;;5115974;28;20519;-81
2021/04/21 00:35:14;;;;;;;10.10;9.10;;;9.10;99.90;;;;;;5133985;28;20391;-82
2021/04/21 00:37:44;;;;;;;34.60;11.20;;;9.20;99.90;;;;;;5133740;28;20392;-82
2021/04/21 00:40:15;;;;;;;12.30;10.07;;;9.20;99.90;;;;;;5132900;28;20396;-82
2021/04/21 00:42:52;;;;;;;22.30;10.20;;;9.30;99.90;;;;;;5133870;28;20400;-82
2021/04/21 00:45:19;;;;;;;13.60;10.97;;;9.40;99.90;;;;;;5134179;28;20459;-82
2021/04/21 00:48:00;;;;;;;17.10;10.27;;;9.40;99.90;;;;;;5114377;28;20385;-82
2021/04/21 00:50:41;;;;;;;12.40;9.97;;;9.40;99.90;;;;;;5129687;28;20392;-82
2021/04/21 00:53:14;;;;;;;8.80;7.90;;;9.40;99.90;;;;;;5127408;28;20462;-82
2021/04/21 00:55:52;;;;;;;11.60;10.23;;;9.50;99.90;;;;;;5116497;28;20395;-81
2021/04/21 00:58:41;;;;;;;18.73;11.63;;;9.50;99.90;;;;;;5135984;28;20388;-79
2021/04/21 01:01:10;;;;;;;9.80;8.80;;;9.50;99.90;;;;;;5118847;28;20391;-81
2021/04/21 01:03:36;;;;;;;13.57;9.80;;;9.50;99.90;;;;;;5134321;28;20471;-82
2021/04/21 01:06:09;;;;;;;8.60;7.70;;;9.40;99.90;;;;;;5132610;28;20422;-82
2021/04/21 01:08:45;;;;;;;10.47;8.70;;;9.40;99.90;;;;;;5127522;28;20431;-82
2021/04/21 01:11:18;;;;;;;12.70;9.13;;;9.40;99.90;;;;;;5128007;28;20479;-82
2021/04/21 01:13:48;;;;;;;16.07;9.40;;;9.30;99.90;;;;;;5133369;28;20431;-81
2021/04/21 01:16:17;;;;;;;10.70;9.30;;;9.40;99.90;;;;;;5135409;28;20449;-82
2021/04/21 01:18:45;;;;;;;8.57;7.87;;;9.40;99.90;;;;;;5119922;28;20394;-82
2021/04/21 01:21:15;;;;;;;11.57;9.67;;;9.40;99.90;;;;;;5138799;28;20388;-81
2021/04/21 01:24:02;;;;;;;11.93;7.87;;;9.40;99.90;;;;;;5139101;28;20396;-81
2021/04/21 01:26:52;;;;;;;10.23;9.13;;;9.40;99.90;;;;;;5121210;28;20392;-81
2021/04/21 01:29:25;;;;;;;10.50;8.67;;;9.30;99.90;;;;;;5106378;28;20421;-81
2021/04/21 01:31:53;;;;;;;10.13;9.10;;;9.30;99.90;;;;;;5139685;28;20392;-82
2021/04/21 01:34:22;;;;;;;11.20;8.90;;;9.30;99.90;;;;;;5121319;28;20436;-81
2021/04/21 01:36:49;;;;;;;11.77;10.47;;;9.20;99.90;;;;;;5120999;28;20384;-82
2021/04/21 01:39:16;;;;;;;14.87;9.80;;;9.20;99.90;;;;;;5139091;28;20389;-82
2021/04/21 01:41:46;;;;;;;16.13;10.63;;;9.20;99.90;;;;;;5121374;28;20467;-82
2021/04/21 01:44:20;;;;;;;14.03;9.20;;;9.20;99.90;;;;;;5139354;28;20408;-81
2021/04/21 01:46:55;;;;;;;11.33;8.17;;;9.20;99.90;;;;;;5121901;28;20384;-80
2021/04/21 01:49:57;;;;;;;13.57;10.70;;;9.10;99.90;;;;;;5138101;28;20419;-82
2021/04/21 01:52:40;;;;;;;11.80;9.00;;;9.10;99.90;;;;;;5125316;28;20473;-79
2021/04/21 01:55:17;;;;;;;10.17;9.10;;;9.20;99.90;;;;;;5107933;28;20407;-80
2021/04/21 01:57:49;;;;;;;14.10;9.30;;;9.10;99.90;;;;;;5124688;28;20380;-79
2021/04/21 02:00:30;;;;;;;15.10;9.70;;;9.10;99.90;;;;;;5106978;28;20400;-80
2021/04/21 02:03:12;;;;;;;13.67;9.20;;;9.10;99.90;;;;;;5125036;28;20388;-80
2021/04/21 02:05:52;;;;;;;10.37;9.00;;;9.20;99.90;;;;;;5125021;28;20491;-80
2021/04/21 02:08:29;;;;;;;11.20;10.00;;;9.10;99.90;;;;;;5106518;28;20539;-80
2021/04/21 02:11:16;;;;;;;13.67;9.30;;;9.10;99.90;;;;;;5090761;28;20431;-80
2021/04/21 02:14:00;;;;;;;12.67;9.50;;;9.10;99.90;;;;;;5123493;28;20453;-80
2021/04/21 02:16:59;;;;;;;14.27;9.30;;;9.00;99.90;;;;;;5090473;28;20388;-79
2021/04/21 02:19:37;;;;;;;12.93;10.00;;;8.90;99.90;;;;;;5124719;28;20396;-79
2021/04/21 02:22:27;;;;;;;16.90;10.00;;;8.80;99.90;;;;;;5106485;28;20406;-79
2021/04/21 02:25:07;;;;;;;16.37;9.07;;;8.70;99.90;;;;;;5125646;28;20388;-79
2021/04/21 02:27:52;;;;;;;9.53;8.60;;;8.60;99.90;;;;;;5109923;28;20416;-83
2021/04/21 02:30:43;;;;;;;11.10;9.70;;;8.60;99.90;;;;;;5136445;28;20456;-82
2021/04/21 02:33:27;;;;;;;9.87;8.83;;;8.60;99.90;;;;;;5118853;28;20463;-81
2021/04/21 02:36:00;;;;;;;14.40;10.33;;;8.50;99.90;;;;;;5136973;28;20392;-82
2021/04/21 02:38:36;;;;;;;11.23;8.83;;;8.50;99.90;;;;;;5137189;28;20726;-81
2021/04/21 02:41:14;;;;;;;11.10;8.00;;;8.60;99.90;;;;;;5115570;28;20457;-82
2021/04/21 02:43:59;;;;;;;13.23;9.43;;;8.60;99.90;;;;;;5115777;28;20388;-82
2021/04/21 02:46:46;;;;;;;10.73;9.73;;;8.50;99.90;;;;;;5136999;28;20380;-81
2021/04/21 02:49:26;;;;;;;10.77;9.23;;;8.50;99.90;;;;;;5136211;28;20826;-82
2021/04/21 02:52:19;;;;;;;15.30;8.77;;;8.40;99.90;;;;;;5118686;28;20419;-82
2021/04/21 02:55:10;;;;;;;10.93;9.87;;;8.30;99.90;;;;;;5114288;28;20404;-82
2021/04/21 02:57:54;;;;;;;11.30;9.27;;;8.20;99.90;;;;;;5117907;28;20368;-81
2021/04/21 03:00:54;;;;;;;11.10;9.20;;;8.30;99.90;;;;;;5126811;28;20397;-82
2021/04/21 03:03:55;;;;;;;11.20;9.50;;;8.30;99.90;;;;;;5120326;28;20384;-82
2021/04/21 03:06:27;;;;;;;12.27;10.30;;;8.20;99.90;;;;;;5119679;28;20384;-82
2021/04/21 03:09:02;;;;;;;10.60;9.13;;;8.30;99.90;;;;;;5120091;28;20472;-81
2021/04/21 03:11:33;;;;;;;10.80;8.83;;;8.30;99.90;;;;;;5120232;28;20434;-82
2021/04/21 03:14:04;;;;;;;13.50;8.83;;;8.30;99.90;;;;;;5121187;28;20442;-82
2021/04/21 03:16:34;;;;;;;19.90;9.97;;;8.30;99.90;;;;;;5108136;28;20459;-81
2021/04/21 03:19:05;;;;;;;10.50;8.90;;;8.30;99.90;;;;;;5133149;28;20388;-81
2021/04/21 03:21:35;;;;;;;10.60;9.50;;;8.30;99.90;;;;;;5116982;28;20407;-81
2021/04/21 03:24:13;;;;;;;9.03;8.07;;;8.30;99.90;;;;;;5117506;28;20455;-81
2021/04/21 03:26:41;;;;;;;9.77;8.70;;;8.40;99.90;;;;;;5116942;28;20409;-80
2021/04/21 03:29:17;;;;;;;16.40;11.50;;;8.40;99.90;;;;;;5113591;28;20446;-80
2021/04/21 03:31:46;;;;;;;14.83;10.50;;;8.30;99.90;;;;;;5114497;28;20416;-81
2021/04/21 03:34:16;;;;;;;15.20;9.73;;;8.20;99.90;;;;;;5115317;28;20403;-80
2021/04/21 03:36:43;;;;;;;10.60;9.57;;;8.20;99.90;;;;;;5133679;28;20395;-80
2021/04/21 03:39:11;;;;;;;15.10;9.27;;;8.20;99.90;;;;;;5133878;28;20606;-80
2021/04/21 03:41:38;;;;;;;13.60;11.33;;;8.20;99.90;;;;;;5120516;28;20543;-80
2021/04/21 03:44:04;;;;;;;15.00;9.10;;;8.20;99.90;;;;;;5113519;28;20437;-82
2021/04/21 03:46:32;;;;;;;10.50;9.23;;;8.20;99.90;;;;;;5095292;28;20403;-80
2021/04/21 03:49:00;;;;;;;11.00;9.37;;;8.10;99.90;;;;;;5112899;28;20385;-80
2021/04/21 03:51:27;;;;;;;10.97;9.87;;;8.10;99.90;;;;;;5114593;28;20413;-80
2021/04/21 03:53:54;;;;;;;11.70;10.53;;;8.10;99.90;;;;;;5133640;28;20407;-80
2021/04/21 03:56:24;;;;;;;13.00;10.43;;;8.00;99.90;;;;;;5119978;28;20411;-80
2021/04/21 03:58:53;;;;;;;12.33;9.93;;;8.00;99.90;;;;;;5133649;28;20381;-81
2021/04/21 04:01:22;;;;;;;12.40;9.73;;;8.10;99.90;;;;;;5132912;28;20407;-80
2021/04/21 04:03:52;;;;;;;10.20;8.83;;;8.00;99.90;;;;;;5114971;28;20489;-81
2021/04/21 04:06:26;;;;;;;14.97;9.30;;;8.00;99.90;;;;;;5133309;28;20417;-80
2021/04/21 04:08:59;;;;;;;13.83;9.87;;;8.00;99.90;;;;;;5133219;28;20423;-81
2021/04/21 04:11:38;;;;;;;15.87;10.03;;;8.00;99.90;;;;;;5133230;28;20392;-81
2021/04/21 04:14:13;;;;;;;9.80;8.17;;;7.90;99.90;;;;;;5133379;28;20399;-82
2021/04/21 04:16:40;;;;;;;18.63;10.03;;;7.90;99.90;;;;;;5118218;28;20379;-82
2021/04/21 04:19:10;;;;;;;9.37;8.47;;;7.70;99.90;;;;;;5117583;28;20727;-81
2021/04/21 04:21:38;;;;;;;12.63;9.93;;;7.80;99.90;;;;;;5135137;28;20400;-82
2021/04/21 04:24:09;;;;;;;12.33;9.87;;;7.80;99.90;;;;;;5133803;28;20436;-82
2021/04/21 04:26:40;;;;;;;16.07;10.83;;;7.80;99.90;;;;;;5113652;28;20691;-82
2021/04/21 04:29:05;;;;;;;9.17;8.30;;;7.80;99.90;;;;;;5132249;28;20392;-82
2021/04/21 04:31:35;;;;;;;12.03;10.03;;;7.80;99.90;;;;;;5098350;28;20412;-82
2021/04/21 04:34:03;;;;;;;14.07;9.60;;;7.80;99.90;;;;;;5133875;28;20150;-82
2021/04/21 04:36:32;;;;;;;9.93;8.83;;;7.80;99.90;;;;;;5134241;28;20406;-82
2021/04/21 04:39:00;;;;;;;14.70;9.47;;;7.70;99.90;;;;;;5132809;28;20404;-80
2021/04/21 04:41:29;;;;;;;11.33;9.33;;;7.70;99.90;;;;;;5142007;28;20516;-82
2021/04/21 04:43:56;;;;;;;15.60;9.67;;;7.60;99.90;;;;;;5128138;28;20452;-82
2021/04/21 04:46:26;;;;;;;13.63;10.40;;;7.50;99.90;;;;;;5152773;28;20419;-82
2021/04/21 04:48:59;;;;;;;12.27;9.80;;;7.50;99.90;;;;;;5149592;28;20487;-82
2021/04/21 04:51:28;;;;;;;12.10;9.60;;;7.50;99.90;;;;;;5153827;28;20399;-82
2021/04/21 04:53:54;;;;;;;9.87;8.20;;;7.40;99.90;;;;;;5138797;27;20486;-82
2021/04/21 04:56:21;;;;;;;9.63;7.97;;;7.40;99.90;;;;;;5156273;27;20444;-82
2021/04/21 04:58:50;;;;;;;13.23;8.70;;;7.40;99.90;;;;;;5135299;27;20390;-82
2021/04/21 05:01:16;;;;;;;11.37;8.10;;;7.40;99.90;;;;;;5151304;27;20486;-82
2021/04/21 05:03:51;;;;;;;9.60;8.70;;;7.40;99.90;;;;;;5130125;27;20815;-83
2021/04/21 05:06:24;;;;;;;8.60;7.67;;;7.50;99.90;;;;;;5149617;27;20613;-82
2021/04/21 05:08:53;;;;;;;9.37;8.33;;;7.50;99.90;;;;;;5149845;27;20946;-82
2021/04/21 05:11:23;;;;;;;12.13;8.00;;;7.50;99.90;;;;;;5149658;27;20422;-82
2021/04/21 05:13:50;;;;;;;8.17;7.17;;;7.50;99.90;;;;;;5148023;27;20432;-82
2021/04/21 05:16:44;;;;;;;8.17;7.37;;;7.60;99.90;;;;;;5131905;27;20505;-82
2021/04/21 05:19:46;;;;;;;10.17;9.17;;;7.50;99.90;;;;;;5150797;27;20418;-82
2021/04/21 05:22:44;;;;;;;11.90;8.00;;;7.40;99.90;;;;;;5134504;27;20842;-84
2021/04/21 05:25:47;;;;;;;11.53;10.40;;;7.00;99.90;;;;;;5147465;27;20408;-82
2021/04/21 05:28:43;;;;;;;10.57;9.47;;;7.00;99.90;;;;;;5136343;27;20393;-82
2021/04/21 05:31:25;;;;;;;12.30;9.97;;;6.70;99.90;;;;;;5125082;27;20482;-83
2021/04/21 05:34:27;;;;;;;13.10;10.10;;;6.60;99.90;;;;;;5124493;27;20454;-81
2021/04/21 05:37:25;;;;;;;15.57;9.50;;;6.70;99.90;;;;;;5124723;27;20502;-82
2021/04/21 05:40:25;;;;;;;12.37;9.40;;;6.70;99.90;;;;;;5146672;27;20399;-83
2021/04/21 05:43:24;;;;;;;14.93;12.07;;;7.00;99.90;;;;;;5148893;27;20578;-82
2021/04/21 05:46:20;;;;;;;15.00;9.37;;;7.30;99.90;;;;;;5151538;27;20399;-80
2021/04/21 05:49:19;;;;;;;12.80;10.23;;;7.40;99.90;;;;;;5153976;27;20404;-82
2021/04/21 05:52:11;;;;;;;16.00;9.93;;;7.40;99.90;;;;;;5126631;27;20411;-82
2021/04/21 05:55:06;;;;;;;11.97;7.90;;;7.60;99.90;;;;;;5128717;27;20416;-83
2021/04/21 05:57:53;;;;;;;11.50;9.87;;;7.70;99.90;;;;;;5151745;27;20503;-83
2021/04/21 06:00:57;;;;;;;15.37;9.97;;;7.70;99.90;;;;;;5147886;27;20418;-82
2021/04/21 06:03:24;;;;;;;15.73;10.23;;;7.60;99.90;;;;;;5137380;28;20444;-82
2021/04/21 06:05:50;;;;;;;13.43;10.43;;;7.50;99.90;;;;;;5150657;27;20411;-83
2021/04/21 06:08:15;;;;;;;12.83;9.30;;;7.50;99.90;;;;;;5127575;27;20447;-83
2021/04/21 06:10:42;;;;;;;14.80;10.47;;;7.50;99.90;;;;;;5118466;28;20185;-83
2021/04/21 06:13:10;;;;;;;14.70;11.00;;;7.70;99.90;;;;;;5129882;27;20191;-83
2021/04/21 06:15:39;;;;;;;12.60;10.40;;;7.70;99.90;;;;;;5147950;27;20437;-83
2021/04/21 06:18:07;;;;;;;14.17;10.33;;;7.70;99.90;;;;;;5134297;27;20438;-83
2021/04/21 06:20:37;;;;;;;15.50;10.87;;;7.50;99.90;;;;;;5140399;27;20415;-83
2021/04/21 06:23:06;;;;;;;14.70;11.67;;;7.70;99.90;;;;;;5108797;27;20452;-82
2021/04/21 06:25:32;;;;;;;18.20;12.40;;;7.80;99.90;;;;;;5149828;27;20421;-82
2021/04/21 06:28:22;;;;;;;14.97;10.40;;;7.80;99.90;;;;;;5148256;27;20410;-82
2021/04/21 06:31:01;;;;;;;15.73;10.13;;;7.70;99.90;;;;;;5143857;27;20460;-82
2021/04/21 06:33:33;;;;;;;15.10;11.57;;;7.80;99.90;;;;;;5137833;27;20426;-82
2021/04/21 06:35:59;;;;;;;14.07;11.63;;;7.70;99.90;;;;;;5149716;27;20415;-82
2021/04/21 06:38:29;;;;;;;15.70;13.20;;;7.50;99.90;;;;;;5140107;27;20461;-82
2021/04/21 06:40:56;;;;;;;13.60;11.60;;;7.20;99.90;;;;;;5142795;27;20463;-82
2021/04/21 06:43:26;;;;;;;14.70;13.10;;;7.10;99.90;;;;;;5135288;27;20455;-83
2021/04/21 06:45:52;;;;;;;17.93;14.20;;;7.20;99.90;;;;;;5140645;27;20427;-82
2021/04/21 06:48:36;;;;;;;15.73;13.50;;;7.30;99.90;;;;;;5119887;28;20756;-82
2021/04/21 06:51:11;;;;;;;16.73;10.93;;;7.50;99.90;;;;;;5129141;27;20413;-82
2021/04/21 06:53:36;;;;;;;15.93;11.57;;;7.80;99.90;;;;;;5138301;27;20423;-83
2021/04/21 06:56:03;;;;;;;12.30;10.20;;;7.90;99.90;;;;;;5142639;27;20892;-82
2021/04/21 06:58:30;;;;;;;11.93;10.23;;;8.00;99.90;;;;;;5150357;27;20176;-82
2021/04/21 07:01:15;;;;;;;13.50;11.27;;;7.70;99.90;;;;;;5111971;28;20417;-82
2021/04/21 07:03:43;;;;;;;22.77;11.70;;;7.70;99.90;;;;;;5098180;28;20454;-82
2021/04/21 07:06:13;;;;;;;15.60;10.70;;;7.80;99.90;;;;;;5131189;27;20498;-81
2021/04/21 07:08:39;;;;;;;11.60;10.07;;;7.80;99.90;;;;;;5152321;27;20513;-82
2021/04/21 07:11:08;;;;;;;12.40;11.10;;;8.00;99.90;;;;;;5127915;27;20506;-82
2021/04/21 07:13:45;;;;;;;18.00;12.60;;;8.20;99.90;;;;;;5126972;27;20479;-83
2021/04/21 07:16:27;;;;;;;12.57;11.00;;;8.40;99.90;;;;;;5138438;27;20418;-83
2021/04/21 07:18:58;;;;;;;19.00;10.93;;;8.20;99.90;;;;;;5133498;27;20385;-84
2021/04/21 07:21:25;;;;;;;19.73;10.30;;;8.50;99.90;;;;;;5118169;27;20433;-83
2021/04/21 07:23:54;;;;;;;14.30;11.23;;;8.70;99.90;;;;;;5131937;27;20539;-84
2021/04/21 07:26:29;;;;;;;14.30;10.50;;;8.80;99.90;;;;;;5140064;27;20476;-83
2021/04/21 07:28:55;;;;;;;13.57;10.00;;;8.90;99.90;;;;;;5137366;27;20410;-83
2021/04/21 07:31:20;;;;;;;15.40;12.20;;;8.80;99.90;;;;;;5094040;28;20441;-83
2021/04/21 07:33:49;;;;;;;14.03;10.30;;;8.70;99.90;;;;;;5123810;27;20411;-83
2021/04/21 07:36:19;;;;;;;13.17;11.10;;;8.60;99.90;;;;;;5109513;28;20174;-83
2021/04/21 07:38:54;;;;;;;17.50;11.37;;;8.60;99.90;;;;;;5110984;27;20430;-83
2021/04/21 07:41:35;;;;;;;16.27;12.20;;;8.80;99.90;;;;;;5112282;27;20454;-83
2021/04/21 07:44:01;;;;;;;11.43;10.23;;;9.00;99.90;;;;;;5116586;27;20446;-83
2021/04/21 07:46:28;;;;;;;18.83;13.30;;;9.40;99.90;;;;;;5133042;27;20450;-83
2021/04/21 07:48:55;;;;;;;13.37;10.70;;;9.60;99.90;;;;;;5081538;28;20534;-82
2021/04/21 07:51:29;;;;;;;15.60;12.50;;;9.90;99.90;;;;;;5128844;27;20434;-82
2021/04/21 07:54:00;;;;;;;16.43;12.03;;;10.10;99.90;;;;;;5130094;27;20418;-82
2021/04/21 07:56:33;;;;;;;17.27;12.50;;;10.30;99.90;;;;;;5143014;27;20541;-82
2021/04/21 07:59:13;;;;;;;15.80;12.80;;;10.60;99.90;;;;;;5149767;27;20415;-83
2021/04/21 08:01:39;;;;;;;20.30;11.70;;;11.00;99.90;;;;;;5104371;28;20378;-83
2021/04/21 08:04:16;;;;;;;15.53;10.23;;;11.10;99.90;;;;;;5143225;27;20458;-83
2021/04/21 08:06:43;;;;;;;14.83;11.20;;;11.20;99.90;;;;;;5133405;28;20411;-83
2021/04/21 08:09:10;;;;;;;11.97;10.70;;;11.30;99.90;;;;;;5139417;28;20443;-82
2021/04/21 08:11:36;;;;;;;15.77;10.73;;;11.40;99.90;;;;;;5128434;28;20499;-82
2021/04/21 08:14:02;;;;;;;15.20;11.23;;;11.50;99.90;;;;;;5139886;28;20395;-83
2021/04/21 08:16:31;;;;;;;14.30;10.93;;;11.70;99.90;;;;;;5120544;28;20426;-83
2021/04/21 08:18:59;;;;;;;15.57;10.57;;;11.90;99.90;;;;;;5122446;27;20891;-84
2021/04/21 08:21:46;;;;;;;11.03;9.90;;;12.10;99.90;;;;;;5121901;28;20423;-84
2021/04/21 08:24:17;;;;;;;12.10;9.00;;;12.30;99.90;;;;;;5145698;27;20823;-83
2021/04/21 08:26:49;;;;;;;10.80;8.83;;;12.30;99.90;;;;;;5102968;28;20423;-84
2021/04/21 08:29:16;;;;;;;13.23;9.53;;;12.40;99.90;;;;;;5130594;27;20483;-84
2021/04/21 08:31:45;;;;;;;12.90;10.60;;;12.60;99.90;;;;;;5151032;27;20477;-83
2021/04/21 08:34:12;;;;;;;12.70;9.00;;;12.60;99.90;;;;;;5142754;27;20478;-83
2021/04/21 08:36:39;;;;;;;10.80;9.70;;;12.60;99.90;;;;;;5125210;27;20435;-84
2021/04/21 08:39:06;;;;;;;12.87;11.53;;;12.80;99.90;;;;;;5145265;27;20513;-84
2021/04/21 08:41:36;;;;;;;12.07;10.30;;;12.90;99.90;;;;;;5120048;28;20467;-84
2021/04/21 08:44:03;;;;;;;16.63;10.17;;;13.00;99.90;;;;;;5132742;27;20433;-83
2021/04/21 08:46:29;;;;;;;10.53;9.43;;;13.10;99.90;;;;;;5155027;27;20464;-84
2021/04/21 08:48:57;;;;;;;14.43;10.80;;;13.30;99.90;;;;;;5139167;27;20502;-84
2021/04/21 08:51:24;;;;;;;11.00;9.23;;;13.50;99.90;;;;;;5109749;27;20471;-83
2021/04/21 08:53:53;;;;;;;10.80;9.70;;;13.60;99.90;;;;;;5126694;27;20571;-83
2021/04/21 08:56:21;;;;;;;12.53;9.10;;;13.80;99.90;;;;;;5102903;27;20415;-83
2021/04/21 08:58:50;;;;;;;11.10;8.93;;;13.50;99.90;;;;;;5120337;27;21004;-83
2021/04/21 09:01:17;;;;;;;9.33;8.33;;;13.30;99.90;;;;;;5120679;27;20407;-84
2021/04/21 09:03:45;;;;;;;12.60;11.00;;;13.60;99.90;;;;;;5122727;27;20466;-83
2021/04/21 09:06:15;;;;;;;10.27;8.80;;;13.60;99.90;;;;;;5140106;27;20774;-84
2021/04/21 09:08:42;;;;;;;10.30;8.87;;;14.10;99.90;;;;;;5123473;27;20434;-84
2021/04/21 09:11:08;;;;;;;8.63;7.87;;;14.40;99.90;;;;;;5145959;27;20736;-83
2021/04/21 09:13:35;;;;;;;15.70;9.47;;;14.60;99.90;;;;;;5138403;27;20751;-83
2021/04/21 09:16:01;;;;;;;12.00;8.63;;;14.90;99.90;;;;;;5120899;27;20509;-83
2021/04/21 09:18:29;;;;;;;8.97;8.07;;;15.00;99.90;;;;;;5118289;27;20453;-83
2021/04/21 09:20:56;;;;;;;9.77;8.23;;;15.30;99.90;;;;;;5117689;27;20170;-83
2021/04/21 09:23:22;;;;;;;9.57;8.57;;;14.80;99.90;;;;;;5135275;27;20526;-82
2021/04/21 09:25:50;;;;;;;10.70;8.60;;;15.40;99.90;;;;;;5132120;27;20902;-83
2021/04/21 09:28:18;;;;;;;10.20;7.70;;;15.60;99.90;;;;;;5133274;27;20431;-83
2021/04/21 09:30:51;;;;;;;8.87;6.13;;;15.80;99.90;;;;;;5120258;27;20420;-84
2021/04/21 09:33:18;;;;;;;7.97;6.17;;;16.00;99.90;;;;;;5128766;27;20423;-84
2021/04/21 09:35:46;;;;;;;8.07;7.00;;;15.80;99.90;;;;;;5146530;27;20418;-84
2021/04/21 09:38:16;;;;;;;8.20;7.30;;;15.90;99.90;;;;;;5123385;27;20446;-84
2021/04/21 09:40:45;;;;;;;7.80;7.10;;;16.10;99.90;;;;;;5141882;27;20446;-84
2021/04/21 09:43:17;;;;;;;9.50;7.13;;;16.30;99.90;;;;;;5145046;27;20446;-83
2021/04/21 09:45:47;;;;;;;7.60;6.77;;;16.30;99.90;;;;;;5122034;27;20424;-84
2021/04/21 09:48:15;;;;;;;12.77;7.60;;;16.50;99.90;;;;;;5127637;27;20446;-83
2021/04/21 09:50:43;;;;;;;10.30;8.03;;;16.50;99.90;;;;;;5123869;27;20851;-84
2021/04/21 09:53:24;;;;;;;9.83;6.50;;;16.50;99.90;;;;;;5103081;27;20416;-83
2021/04/21 09:56:06;;;;;;;7.43;6.73;;;16.60;99.90;;;;;;5124592;27;20424;-83
2021/04/21 09:58:36;;;;;;;11.23;7.43;;;16.60;99.90;;;;;;5107036;28;20509;-83
2021/04/21 10:01:34;;;;;;;11.73;7.83;;;16.80;99.90;;;;;;5134429;27;20790;-83
2021/04/21 10:04:16;;;;;;;10.77;7.80;;;17.10;99.90;;;;;;5108412;27;20470;-83
2021/04/21 10:06:47;;;;;;;7.50;6.80;;;17.20;99.90;;;;;;5076330;28;20451;-83
2021/04/21 10:09:27;;;;;;;7.80;6.90;;;17.40;99.90;;;;;;5130799;27;20453;-83
2021/04/21 10:12:13;;;;;;;8.60;7.40;;;17.50;99.90;;;;;;5119867;27;20415;-84
2021/04/21 10:14:40;;;;;;;9.30;8.43;;;17.00;99.90;;;;;;5149284;27;20530;-83
2021/04/21 10:17:06;;;;;;;14.20;9.47;;;17.00;99.90;;;;;;5139538;27;20419;-84
2021/04/21 10:19:33;;;;;;;9.60;8.33;;;16.80;99.90;;;;;;5142242;27;20399;-83
2021/04/21 10:22:00;;;;;;;13.27;9.83;;;16.70;99.90;;;;;;5106437;27;20412;-83
2021/04/21 10:24:27;;;;;;;13.10;9.30;;;16.90;99.90;;;;;;5134030;27;20498;-84
2021/04/21 10:26:55;;;;;;;9.80;8.67;;;17.00;99.90;;;;;;5109873;27;20504;-83
2021/04/21 10:29:24;;;;;;;12.67;9.77;;;17.00;99.90;;;;;;5132640;27;20471;-84
2021/04/21 10:31:54;;;;;;;9.47;7.97;;;17.00;99.90;;;;;;5115102;27;20420;-83
2021/04/21 10:34:21;;;;;;;12.63;9.50;;;16.30;99.90;;;;;;5143009;27;20418;-84
2021/04/21 10:36:52;;;;;;;15.10;11.83;;;15.90;99.90;;;;;;5136097;27;20411;-84
2021/04/21 10:39:35;;;;;;;12.10;9.20;;;16.00;99.90;;;;;;5118451;27;20864;-84
2021/04/21 10:42:10;;;;;;;13.73;9.80;;;15.80;99.90;;;;;;5123121;27;20541;-83
2021/04/21 10:44:38;;;;;;;14.70;10.50;;;15.70;99.90;;;;;;5127013;27;20544;-84
2021/04/21 10:47:09;;;;;;;11.60;9.90;;;16.40;99.90;;;;;;5122763;27;20419;-81
2021/04/21 10:49:56;;;;;;;10.03;9.03;;;16.90;99.90;;;;;;5108135;27;20419;-83
2021/04/21 10:52:34;;;;;;;12.00;9.60;;;17.00;99.90;;;;;;5145342;27;20476;-84
2021/04/21 10:55:22;;;;;;;11.30;10.20;;;17.80;99.90;;;;;;5130548;27;20435;-83
2021/04/21 10:57:58;;;;;;;12.73;9.33;;;18.10;99.90;;;;;;5138359;27;20407;-84
2021/04/21 11:00:28;;;;;;;13.83;9.33;;;17.70;99.90;;;;;;5130661;27;20535;-84
2021/04/21 11:03:26;;;;;;;10.97;9.87;;;17.40;99.90;;;;;;5126992;27;20474;-84
2021/04/21 11:05:59;;;;;;;13.60;9.73;;;17.20;99.90;;;;;;5138047;27;20418;-84
2021/04/21 11:08:28;;;;;;;13.53;8.40;;;17.70;99.90;;;;;;5111300;28;20450;-84
2021/04/21 11:11:14;;;;;;;13.77;9.60;;;18.10;99.90;;;;;;5124929;27;20912;-83
2021/04/21 11:13:44;;;;;;;10.93;9.33;;;17.90;99.90;;;;;;5118247;27;20547;-84
2021/04/21 11:16:34;;;;;;;13.10;8.77;;;17.60;99.90;;;;;;5130403;27;20437;-85
2021/04/21 11:19:27;;;;;;;10.00;8.90;;;18.50;99.90;;;;;;5095228;27;20420;-82
2021/04/21 11:22:15;;;;;;;10.07;8.37;;;18.50;99.90;;;;;;5134313;27;20419;-83
2021/04/21 11:24:41;;;;;;;10.50;9.50;;;19.60;99.90;;;;;;5129569;27;20511;-82
2021/04/21 11:27:44;;;;;;;13.90;11.20;;;20.20;99.90;;;;;;5157715;27;20399;-84
2021/04/21 11:30:47;;;;;;;11.67;10.10;;;20.10;95.90;;;;;;5164527;27;20413;-84
2021/04/21 11:33:44;;;;;;;11.87;8.13;;;20.10;95.80;;;;;;5125161;27;20755;-84
2021/04/21 11:36:34;;;;;;;12.50;8.87;;;20.10;93.60;;;;;;5142404;27;20413;-83
2021/04/21 11:39:00;;;;;;;10.83;9.77;;;20.20;93.40;;;;;;5123242;27;20451;-83
2021/04/21 11:41:37;;;;;;;9.77;8.87;;;19.10;97.20;;;;;;5140947;27;20481;-83
2021/04/21 11:44:03;;;;;;;11.67;7.37;;;19.00;98.20;;;;;;5124271;27;20180;-83
2021/04/21 11:46:56;;;;;;;9.97;9.03;;;18.70;99.00;;;;;;5124075;27;20425;-83
2021/04/21 11:49:54;;;;;;;7.70;6.47;;;18.20;99.60;;;;;;5124930;27;20422;-84
2021/04/21 11:52:41;;;;;;;10.80;8.40;;;17.60;99.50;;;;;;5144789;27;20415;-83
2021/04/21 11:55:19;;;;;;;11.90;7.37;;;17.20;99.90;;;;;;5126390;27;20454;-82
2021/04/21 11:58:02;;;;;;;7.03;6.33;;;17.00;99.90;;;;;;5111599;27;20479;-84
2021/04/21 12:00:32;;;;;;;8.83;6.93;;;16.70;99.90;;;;;;5134324;27;20410;-84
2021/04/21 12:02:59;;;;;;;10.30;7.27;;;16.60;99.90;;;;;;5156961;27;20418;-82
2021/04/21 12:05:28;;;;;;;15.07;7.30;;;16.60;99.90;;;;;;5122666;27;20399;-82
2021/04/21 12:07:56;;;;;;;8.10;6.87;;;16.20;99.90;;;;;;5139757;27;20411;-82
2021/04/21 12:10:23;;;;;;;9.83;8.80;;;16.00;99.90;;;;;;5137297;28;20445;-82
2021/04/21 12:12:49;;;;;;;10.03;8.10;;;15.90;99.90;;;;;;5128747;28;20516;-82
2021/04/21 12:15:19;;;;;;;13.43;10.07;;;16.10;99.90;;;;;;5123464;28;20404;-82
2021/04/21 12:17:54;;;;;;;10.63;8.00;;;16.40;99.90;;;;;;5102996;28;20402;-82
2021/04/21 12:20:23;;;;;;;19.53;11.80;;;17.00;99.90;;;;;;5102108;28;20714;-84
2021/04/21 12:22:49;;;;;;;11.47;10.27;;;16.90;99.90;;;;;;5138459;28;20400;-84
2021/04/21 12:25:19;;;;;;;10.93;9.13;;;17.50;99.90;;;;;;5122311;28;20418;-83
2021/04/21 12:27:45;;;;;;;12.20;9.10;;;17.80;99.90;;;;;;5104402;28;20519;-84
2021/04/21 12:30:13;;;;;;;12.23;7.60;;;17.40;99.90;;;;;;5105464;28;20465;-84
2021/04/21 12:32:44;;;;;;;7.13;6.40;;;17.60;99.90;;;;;;5132535;28;20238;-84
2021/04/21 12:35:12;;;;;;;10.73;6.20;;;17.70;99.90;;;;;;5075076;28;20392;-83
2021/04/21 12:37:37;;;;;;;8.07;5.90;;;17.50;99.90;;;;;;5119852;28;20502;-83
2021/04/21 12:40:25;;;;;;;8.93;5.70;;;17.20;99.90;;;;;;5139554;28;20491;-84
2021/04/21 12:42:51;;;;;;;8.03;6.60;;;17.90;99.90;;;;;;5133083;28;20193;-83
2021/04/21 12:45:31;;;;;;;7.17;6.47;;;18.60;99.90;;;;;;5133253;28;20506;-83
2021/04/21 12:47:57;;;;;;;5.73;5.30;;;19.20;99.60;;;;;;5139812;28;20411;-83
2021/04/21 12:50:31;;;;;;;5.23;4.73;;;20.20;96.80;;;;;;5117814;28;20415;-83
2021/04/21 12:53:14;;;;;;;6.50;4.43;;;20.70;95.00;;;;;;5110362;28;20476;-83
2021/04/21 12:55:40;;;;;;;5.80;5.30;;;21.10;92.20;;;;;;5121178;28;20487;-83
2021/04/21 12:58:07;;;;;;;5.30;4.07;;;20.50;92.30;;;;;;5118013;28;20392;-83
2021/04/21 13:00:33;;;;;;;4.67;4.07;;;20.40;91.80;;;;;;5127940;28;20414;-83
2021/04/21 13:03:01;;;;;;;4.33;3.90;;;20.00;91.30;;;;;;5122317;28;20407;-83
2021/04/21 13:05:44;;;;;;;4.17;3.87;;;19.50;92.10;;;;;;5139362;28;20399;-83
2021/04/21 13:08:26;;;;;;;7.80;3.63;;;18.60;93.70;;;;;;5131754;28;20426;-83
2021/04/21 13:10:54;;;;;;;3.83;3.40;;;18.30;94.80;;;;;;5135814;28;20473;-86
2021/04/21 13:13:30;;;;;;;4.23;3.40;;;18.00;95.70;;;;;;5103535;28;20914;-84
2021/04/21 13:15:57;;;;;;;4.53;4.13;;;17.70;96.90;;;;;;5132771;27;20399;-84